Time;durP1;ratioP1;P1;durP2;ratioP2;P2;SDS_P1;SDS_P2;PMS_P1;PMS_P2;Temp;Humidity;BMP_temperature;BMP_pressure;BME280_temperature;BME280_humidity;BME280_pressure;Samples;Min_cycle;Max_cycle;Signal;HPM_P1;HPM_P2
2021/07/01 00:01:54;;;;;;;3.42;3.15;;;27.90;65.70;;;;;;4875653;29;20060;-59
2021/07/01 00:04:21;;;;;;;2.88;2.63;;;27.90;65.80;;;;;;4873444;29;20084;-59
2021/07/01 00:06:48;;;;;;;3.45;3.28;;;27.90;65.80;;;;;;4875558;29;20057;-59
2021/07/01 00:09:15;;;;;;;2.63;2.63;;;27.90;65.80;;;;;;4875277;29;20057;-59
2021/07/01 00:11:42;;;;;;;2.83;2.72;;;27.90;65.90;;;;;;4879162;29;20143;-58
2021/07/01 00:14:09;;;;;;;2.97;2.88;;;27.90;65.90;;;;;;4875257;29;20059;-59
2021/07/01 00:16:35;;;;;;;2.72;2.63;;;27.90;65.80;;;;;;4875056;29;20071;-59
2021/07/01 00:19:02;;;;;;;3.78;3.13;;;27.90;65.80;;;;;;4874985;29;20053;-58
2021/07/01 00:21:28;;;;;;;3.13;2.83;;;27.90;65.70;;;;;;4874847;29;20061;-58
2021/07/01 00:23:55;;;;;;;3.20;2.90;;;27.90;65.80;;;;;;4875055;29;20056;-59
2021/07/01 00:26:21;;;;;;;3.90;2.65;;;27.90;65.80;;;;;;4875122;29;20418;-59
2021/07/01 00:28:47;;;;;;;5.13;2.80;;;27.90;65.90;;;;;;4875020;29;20060;-59
2021/07/01 00:31:14;;;;;;;2.35;2.25;;;27.90;65.90;;;;;;4875110;29;20148;-58
2021/07/01 00:33:41;;;;;;;3.67;2.80;;;27.90;65.90;;;;;;4874715;29;20061;-59
2021/07/01 00:36:07;;;;;;;2.58;2.47;;;27.90;65.90;;;;;;4874680;29;20094;-58
2021/07/01 00:38:33;;;;;;;2.90;2.80;;;27.90;65.90;;;;;;4874796;29;20059;-58
2021/07/01 00:41:00;;;;;;;2.72;2.63;;;27.90;66.00;;;;;;4874963;29;20057;-59
2021/07/01 00:43:26;;;;;;;2.90;2.80;;;27.90;66.00;;;;;;4874680;29;20061;-58
2021/07/01 00:45:52;;;;;;;3.58;2.55;;;27.90;66.10;;;;;;4874945;29;20079;-59
2021/07/01 00:48:18;;;;;;;4.78;2.33;;;27.90;66.10;;;;;;4874618;29;20071;-59
2021/07/01 00:50:45;;;;;;;3.28;2.92;;;27.90;66.00;;;;;;4874747;29;20092;-58
2021/07/01 00:53:12;;;;;;;4.03;3.03;;;27.90;65.90;;;;;;4874474;29;20068;-58
2021/07/01 00:55:38;;;;;;;3.65;2.67;;;27.90;65.90;;;;;;4874510;29;20067;-59
2021/07/01 00:58:08;;;;;;;2.65;2.55;;;27.90;65.90;;;;;;4874573;29;20068;-59
2021/07/01 01:03:16;;;;;;;2.50;2.38;;;27.90;65.80;;;;;;4874616;29;20065;-59
2021/07/01 01:05:42;;;;;;;2.53;2.42;;;27.90;65.70;;;;;;4874298;29;20064;-59
2021/07/01 01:08:09;;;;;;;2.75;2.47;;;27.90;65.70;;;;;;4874477;29;20072;-58
2021/07/01 01:10:35;;;;;;;3.35;1.83;;;27.90;65.70;;;;;;4879274;29;20060;-59
2021/07/01 01:13:31;;;;;;;2.85;1.92;;;27.90;65.80;;;;;;4874427;29;20061;-59
2021/07/01 01:16:26;;;;;;;2.20;2.20;;;27.90;65.90;;;;;;4875674;29;20061;-59
2021/07/01 01:18:52;;;;;;;3.50;2.67;;;27.90;65.90;;;;;;4876890;29;20438;-59
2021/07/01 01:21:24;;;;;;;2.38;2.10;;;27.80;65.80;;;;;;4878245;29;20061;-58
2021/07/01 01:23:51;;;;;;;2.78;1.90;;;27.80;65.80;;;;;;4876834;29;20514;-58
2021/07/01 01:26:17;;;;;;;2.95;1.73;;;27.90;65.80;;;;;;4878334;29;20088;-58
2021/07/01 01:28:48;;;;;;;2.22;2.13;;;27.80;66.40;;;;;;4878030;29;20179;-59
2021/07/01 01:31:15;;;;;;;2.05;1.80;;;27.90;65.80;;;;;;4876762;29;20048;-58
2021/07/01 01:33:42;;;;;;;4.28;1.83;;;27.90;65.70;;;;;;4877965;29;20085;-59
2021/07/01 01:36:08;;;;;;;3.17;1.65;;;27.90;65.60;;;;;;4876663;29;20057;-59
2021/07/01 01:38:37;;;;;;;4.45;1.90;;;27.80;65.50;;;;;;4876650;29;20061;-58
2021/07/01 01:41:27;;;;;;;2.03;1.92;;;27.80;65.40;;;;;;4877011;29;20072;-59
2021/07/01 01:43:56;;;;;;;2.65;2.40;;;27.80;65.40;;;;;;4876854;29;20064;-59
2021/07/01 01:46:23;;;;;;;3.22;1.50;;;27.90;65.50;;;;;;4876669;29;20109;-59
2021/07/01 01:48:53;;;;;;;1.48;1.42;;;27.80;65.30;;;;;;4876354;29;20057;-58
2021/07/01 01:51:22;;;;;;;1.77;1.70;;;27.90;65.30;;;;;;4860079;29;20114;-59
2021/07/01 01:53:54;;;;;;;1.92;1.67;;;27.80;65.30;;;;;;4868813;29;20057;-58
2021/07/01 01:56:21;;;;;;;1.92;1.70;;;27.80;65.20;;;;;;4876213;29;20105;-58
2021/07/01 01:58:49;;;;;;;1.92;1.85;;;27.80;65.20;;;;;;4877527;29;20064;-59
2021/07/01 02:01:34;;;;;;;2.97;1.67;;;27.80;65.20;;;;;;4877569;29;20057;-58
2021/07/01 02:04:07;;;;;;;2.25;2.15;;;27.80;65.20;;;;;;4875934;29;20101;-59
2021/07/01 02:06:55;;;;;;;1.90;1.52;;;27.80;65.20;;;;;;4877279;29;20053;-58
2021/07/01 02:09:23;;;;;;;5.85;1.90;;;27.80;65.20;;;;;;4876090;29;20064;-59
2021/07/01 02:11:53;;;;;;;1.80;1.70;;;27.80;65.20;;;;;;4881391;29;20061;-59
2021/07/01 02:14:21;;;;;;;1.98;1.65;;;27.80;65.30;;;;;;4877412;29;20061;-58
2021/07/01 02:17:25;;;;;;;1.92;1.83;;;27.80;65.30;;;;;;4876498;29;20075;-59
2021/07/01 02:19:57;;;;;;;2.92;1.83;;;27.80;65.30;;;;;;4876213;29;20607;-58
2021/07/01 02:22:24;;;;;;;4.47;1.75;;;27.80;65.20;;;;;;4875810;29;20109;-58
2021/07/01 02:24:50;;;;;;;5.60;2.00;;;27.80;65.30;;;;;;4863887;29;20065;-59
2021/07/01 02:27:16;;;;;;;2.78;1.92;;;27.80;65.20;;;;;;4875539;29;20065;-59
2021/07/01 02:29:43;;;;;;;6.35;1.60;;;27.80;65.30;;;;;;4875687;29;20113;-58
2021/07/01 02:32:14;;;;;;;4.78;2.17;;;27.80;65.30;;;;;;4877197;29;20065;-58
2021/07/01 02:34:41;;;;;;;3.67;2.10;;;27.80;65.30;;;;;;4876941;29;20049;-58
2021/07/01 02:37:26;;;;;;;2.15;1.80;;;27.80;65.40;;;;;;4875713;29;20527;-59
2021/07/01 02:40:07;;;;;;;1.80;1.80;;;27.80;65.50;;;;;;4876699;29;20061;-58
2021/07/01 02:42:54;;;;;;;2.60;2.00;;;27.70;65.50;;;;;;4875674;29;20064;-59
2021/07/01 02:45:21;;;;;;;3.05;1.67;;;27.70;65.60;;;;;;4875566;29;20146;-59
2021/07/01 02:48:25;;;;;;;1.55;1.45;;;27.70;65.70;;;;;;4876209;29;20521;-59
2021/07/01 02:50:53;;;;;;;1.95;1.80;;;27.70;65.70;;;;;;4876632;29;20056;-58
2021/07/01 02:53:19;;;;;;;2.33;1.95;;;27.70;65.80;;;;;;4876612;29;20102;-58
2021/07/01 02:55:46;;;;;;;1.88;1.77;;;27.80;65.90;;;;;;4875188;29;20065;-59
2021/07/01 02:58:15;;;;;;;2.47;2.13;;;27.70;65.70;;;;;;4875477;29;20451;-58
2021/07/01 03:01:01;;;;;;;2.90;2.28;;;27.70;65.70;;;;;;4876470;29;20135;-59
2021/07/01 03:03:28;;;;;;;2.17;2.08;;;27.70;65.80;;;;;;4875270;29;20152;-59
2021/07/01 03:06:05;;;;;;;3.83;2.28;;;27.80;65.80;;;;;;4875268;29;20573;-59
2021/07/01 03:08:32;;;;;;;1.95;1.85;;;27.80;65.80;;;;;;4875130;29;20116;-58
2021/07/01 03:10:59;;;;;;;2.03;1.92;;;27.80;65.90;;;;;;4879847;29;20100;-58
2021/07/01 03:13:26;;;;;;;3.38;2.47;;;27.80;65.80;;;;;;4876393;29;20108;-59
2021/07/01 03:15:54;;;;;;;2.50;2.22;;;27.80;65.80;;;;;;4874985;29;20116;-58
2021/07/01 03:18:20;;;;;;;1.73;1.58;;;27.80;65.70;;;;;;4876411;29;20164;-59
2021/07/01 03:21:13;;;;;;;4.70;2.17;;;27.80;65.70;;;;;;4875099;29;20063;-59
2021/07/01 03:23:46;;;;;;;2.85;2.00;;;27.80;65.60;;;;;;4874809;29;20723;-58
2021/07/01 03:26:13;;;;;;;4.22;2.00;;;27.70;65.40;;;;;;4874821;29;20053;-58
2021/07/01 03:28:40;;;;;;;2.90;2.22;;;27.80;65.60;;;;;;4870325;29;20057;-59
2021/07/01 03:31:07;;;;;;;3.17;2.08;;;27.80;65.50;;;;;;4856357;29;20114;-58
2021/07/01 03:33:35;;;;;;;3.25;1.83;;;27.70;65.40;;;;;;4873150;29;20057;-59
2021/07/01 03:36:04;;;;;;;7.35;2.00;;;27.70;65.30;;;;;;4876077;29;20064;-58
2021/07/01 03:38:49;;;;;;;1.95;1.85;;;27.70;65.30;;;;;;4875035;29;20060;-58
2021/07/01 03:41:23;;;;;;;1.83;1.77;;;27.70;65.40;;;;;;4874659;29;20063;-59
2021/07/01 03:43:52;;;;;;;1.90;1.73;;;27.70;65.50;;;;;;4874468;29;20149;-59
2021/07/01 03:46:21;;;;;;;2.38;2.00;;;27.70;65.50;;;;;;4874672;29;20053;-58
2021/07/01 03:48:48;;;;;;;3.28;1.77;;;27.70;65.80;;;;;;4859037;29;20348;-59
2021/07/01 03:51:50;;;;;;;1.70;1.63;;;27.70;65.70;;;;;;4875600;29;20075;-59
2021/07/01 03:54:28;;;;;;;3.80;1.90;;;27.70;65.80;;;;;;4875470;29;20152;-59
2021/07/01 03:56:57;;;;;;;2.15;1.95;;;27.70;65.80;;;;;;4874209;29;20068;-58
2021/07/01 03:59:30;;;;;;;3.58;2.05;;;27.70;65.80;;;;;;4874211;29;20072;-58
2021/07/01 04:02:16;;;;;;;4.60;1.98;;;27.70;65.70;;;;;;4875602;29;20053;-59
2021/07/01 04:04:42;;;;;;;2.67;2.47;;;27.70;65.70;;;;;;4873965;29;20510;-58
2021/07/01 04:07:08;;;;;;;2.40;2.15;;;27.70;65.60;;;;;;4874368;29;20057;-58
2021/07/01 04:09:38;;;;;;;1.98;1.90;;;27.70;65.40;;;;;;4861722;29;20515;-59
2021/07/01 04:12:24;;;;;;;2.75;2.03;;;27.80;65.30;;;;;;4878541;29;20421;-59
2021/07/01 04:15:09;;;;;;;2.30;2.17;;;27.80;65.30;;;;;;4875157;29;20148;-58
2021/07/01 04:17:54;;;;;;;4.15;2.33;;;27.70;65.20;;;;;;4875129;29;20075;-58
2021/07/01 04:20:40;;;;;;;5.68;2.22;;;27.70;65.20;;;;;;4875016;29;20049;-58
2021/07/01 04:23:27;;;;;;;5.38;3.08;;;27.70;65.20;;;;;;4856781;29;20071;-59
2021/07/01 04:26:32;;;;;;;6.38;1.83;;;27.70;65.10;;;;;;4874971;29;20501;-59
2021/07/01 04:29:03;;;;;;;2.38;1.75;;;27.70;65.00;;;;;;4873961;29;20095;-58
2021/07/01 04:31:32;;;;;;;3.58;1.55;;;27.70;65.00;;;;;;4872337;29;20073;-57
2021/07/01 04:34:02;;;;;;;2.42;1.60;;;27.70;65.50;;;;;;4871500;29;20072;-58
2021/07/01 04:36:29;;;;;;;1.88;1.48;;;27.70;65.70;;;;;;4881828;29;20076;-58
2021/07/01 04:38:57;;;;;;;2.13;1.95;;;27.70;65.60;;;;;;4873479;29;20155;-58
2021/07/01 04:41:25;;;;;;;2.17;2.03;;;27.70;65.70;;;;;;4873765;29;20076;-57
2021/07/01 04:43:53;;;;;;;6.07;2.08;;;27.70;65.60;;;;;;4874681;29;20116;-59
2021/07/01 04:46:23;;;;;;;2.55;2.35;;;27.70;65.50;;;;;;4871907;29;20056;-58
2021/07/01 04:48:53;;;;;;;6.18;2.92;;;27.70;65.50;;;;;;4872873;29;20061;-58
2021/07/01 04:51:20;;;;;;;6.20;2.60;;;27.70;65.60;;;;;;4873439;29;20067;-58
2021/07/01 04:54:05;;;;;;;3.30;2.55;;;27.70;65.70;;;;;;4874671;29;20057;-58
2021/07/01 04:56:50;;;;;;;2.42;2.35;;;27.70;65.70;;;;;;4874278;29;20064;-58
2021/07/01 04:59:19;;;;;;;3.25;2.83;;;27.70;65.70;;;;;;4873506;29;20092;-59
2021/07/01 05:01:58;;;;;;;9.68;2.70;;;27.70;65.60;;;;;;4872570;29;20121;-60
2021/07/01 05:04:51;;;;;;;3.00;2.72;;;27.70;65.50;;;;;;4865998;29;20064;-60
2021/07/01 05:07:17;;;;;;;3.08;2.25;;;27.70;65.20;;;;;;4869972;29;20124;-59
2021/07/01 05:09:46;;;;;;;4.25;2.35;;;27.70;65.30;;;;;;4872908;29;20096;-59
2021/07/01 05:12:38;;;;;;;4.95;2.70;;;27.70;65.30;;;;;;4865271;29;20449;-59
2021/07/01 05:15:05;;;;;;;4.00;2.08;;;27.70;65.50;;;;;;4873155;29;20060;-59
2021/07/01 05:17:33;;;;;;;1.88;1.73;;;27.70;65.50;;;;;;4874020;29;20070;-60
2021/07/01 05:20:00;;;;;;;3.75;1.70;;;27.70;65.50;;;;;;4872942;29;20506;-59
2021/07/01 05:22:28;;;;;;;3.63;2.00;;;27.70;65.50;;;;;;4860950;29;20068;-60
2021/07/01 05:25:14;;;;;;;5.55;1.33;;;27.70;65.50;;;;;;4874012;29;20053;-58
2021/07/01 05:28:07;;;;;;;3.35;1.40;;;27.70;65.60;;;;;;4874064;29;20474;-61
2021/07/01 05:30:59;;;;;;;1.80;1.70;;;27.70;65.70;;;;;;4873213;29;20057;-59
2021/07/01 05:33:45;;;;;;;4.10;1.67;;;27.60;66.00;;;;;;4874432;29;20120;-57
2021/07/01 05:36:12;;;;;;;6.30;2.08;;;27.70;66.30;;;;;;4873010;29;20150;-59
2021/07/01 05:38:42;;;;;;;4.15;1.73;;;27.70;66.40;;;;;;4872787;29;20063;-59
2021/07/01 05:41:09;;;;;;;2.05;1.90;;;27.60;66.30;;;;;;4872568;29;20057;-61
2021/07/01 05:43:36;;;;;;;3.60;1.75;;;27.60;66.10;;;;;;4874049;29;20065;-59
2021/07/01 05:46:05;;;;;;;2.42;1.73;;;27.60;66.50;;;;;;4872520;29;20156;-61
2021/07/01 05:48:31;;;;;;;1.92;1.80;;;27.60;66.30;;;;;;4874388;29;20576;-59
2021/07/01 05:51:05;;;;;;;8.05;2.17;;;27.60;66.40;;;;;;4874201;29;20140;-59
2021/07/01 05:53:46;;;;;;;3.70;1.45;;;27.60;66.60;;;;;;4874168;29;20528;-59
2021/07/01 05:56:13;;;;;;;1.85;1.70;;;27.60;66.70;;;;;;4873754;29;20061;-57
2021/07/01 05:58:39;;;;;;;7.43;2.15;;;27.60;67.10;;;;;;4873136;29;20556;-59
2021/07/01 06:01:05;;;;;;;2.83;2.00;;;27.60;66.50;;;;;;4872758;29;20057;-58
2021/07/01 06:03:32;;;;;;;5.57;1.63;;;27.60;66.60;;;;;;4876999;29;20065;-58
2021/07/01 06:06:19;;;;;;;2.10;2.00;;;27.60;66.70;;;;;;4877162;29;20116;-59
2021/07/01 06:09:19;;;;;;;2.13;1.75;;;27.60;66.70;;;;;;4876103;29;20075;-59
2021/07/01 06:11:46;;;;;;;1.63;1.60;;;27.60;66.60;;;;;;4882518;29;20056;-61
2021/07/01 06:14:12;;;;;;;2.10;1.95;;;27.60;66.70;;;;;;4876756;29;20061;-58
2021/07/01 06:16:39;;;;;;;5.28;2.42;;;27.60;66.20;;;;;;4877228;29;20061;-58
2021/07/01 06:19:06;;;;;;;4.10;2.00;;;27.60;66.10;;;;;;4877007;29;20069;-60
2021/07/01 06:21:33;;;;;;;3.45;2.05;;;27.60;66.30;;;;;;4877285;29;20057;-58
2021/07/01 06:24:01;;;;;;;2.28;1.88;;;27.60;66.40;;;;;;4876407;29;20101;-59
2021/07/01 06:26:29;;;;;;;4.78;2.17;;;27.60;66.40;;;;;;4875080;29;20084;-57
2021/07/01 06:28:56;;;;;;;3.42;1.80;;;27.60;66.40;;;;;;4877122;29;20061;-62
2021/07/01 06:31:22;;;;;;;11.70;1.50;;;27.60;66.40;;;;;;4877336;29;20067;-58
2021/07/01 06:33:49;;;;;;;1.67;1.58;;;27.70;66.30;;;;;;4877091;29;20072;-58
2021/07/01 06:36:21;;;;;;;1.90;1.80;;;27.70;66.10;;;;;;4876859;29;20069;-58
2021/07/01 06:39:06;;;;;;;5.72;2.05;;;27.70;66.10;;;;;;4876966;29;20093;-58
2021/07/01 06:42:04;;;;;;;3.75;2.30;;;27.70;65.90;;;;;;4874532;29;20061;-58
2021/07/01 06:44:58;;;;;;;5.28;1.58;;;27.60;65.70;;;;;;4868462;29;20140;-58
2021/07/01 06:47:51;;;;;;;2.67;1.77;;;27.70;65.60;;;;;;4876638;29;20061;-58
2021/07/01 06:50:36;;;;;;;2.00;1.90;;;27.60;65.40;;;;;;4868504;29;20136;-59
2021/07/01 06:53:21;;;;;;;4.00;1.45;;;27.60;65.60;;;;;;4876503;29;20426;-59
2021/07/01 06:56:09;;;;;;;7.30;2.25;;;27.60;65.50;;;;;;4859317;29;20069;-60
2021/07/01 06:58:37;;;;;;;2.47;2.03;;;27.60;65.60;;;;;;4876357;29;20092;-59
2021/07/01 07:01:04;;;;;;;2.90;2.00;;;27.60;65.70;;;;;;4876804;29;20052;-60
2021/07/01 07:03:32;;;;;;;8.40;2.35;;;27.60;65.80;;;;;;4876602;29;20090;-60
2021/07/01 07:06:00;;;;;;;3.53;1.67;;;27.60;65.80;;;;;;4875853;29;20493;-61
2021/07/01 07:08:26;;;;;;;6.72;2.13;;;27.50;65.60;;;;;;4875745;29;20064;-62
2021/07/01 07:10:53;;;;;;;2.60;1.80;;;27.50;65.50;;;;;;4880988;29;20549;-61
2021/07/01 07:13:24;;;;;;;1.90;1.70;;;27.60;65.70;;;;;;4874911;29;20165;-61
2021/07/01 07:15:52;;;;;;;1.40;1.40;;;27.60;65.70;;;;;;4876099;29;20494;-61
2021/07/01 07:18:27;;;;;;;2.15;2.00;;;27.60;65.60;;;;;;4875930;29;20484;-63
2021/07/01 07:20:58;;;;;;;2.78;1.10;;;27.60;65.60;;;;;;4878193;29;20072;-64
2021/07/01 07:23:32;;;;;;;2.05;1.67;;;27.50;65.40;;;;;;4862136;29;20141;-61
2021/07/01 07:26:03;;;;;;;2.40;1.73;;;27.50;65.20;;;;;;4876096;29;20113;-59
2021/07/01 07:28:32;;;;;;;2.58;1.38;;;27.50;65.20;;;;;;4874780;29;20060;-62
2021/07/01 07:31:00;;;;;;;2.42;1.98;;;27.50;65.10;;;;;;4874668;29;20065;-62
2021/07/01 07:33:29;;;;;;;5.45;1.58;;;27.50;65.00;;;;;;4875678;29;20061;-61
2021/07/01 07:35:56;;;;;;;2.33;2.22;;;27.60;65.00;;;;;;4875901;29;20489;-61
2021/07/01 07:38:27;;;;;;;3.35;1.90;;;27.60;65.00;;;;;;4875707;29;20061;-60
2021/07/01 07:40:53;;;;;;;4.57;2.13;;;27.60;65.10;;;;;;4875921;29;20087;-60
2021/07/01 07:43:21;;;;;;;4.40;2.10;;;27.60;65.20;;;;;;4874953;29;20580;-60
2021/07/01 07:45:48;;;;;;;1.95;1.85;;;27.50;65.20;;;;;;4875704;29;20060;-61
2021/07/01 07:48:15;;;;;;;3.22;2.25;;;27.50;65.20;;;;;;4875488;29;20159;-61
2021/07/01 07:50:44;;;;;;;3.10;1.88;;;27.60;65.20;;;;;;4875462;29;20147;-60
2021/07/01 07:53:18;;;;;;;2.42;1.80;;;27.60;65.10;;;;;;4873711;29;20068;-61
2021/07/01 07:55:47;;;;;;;1.77;1.65;;;27.60;65.00;;;;;;4875393;29;20136;-61
2021/07/01 07:58:13;;;;;;;1.67;1.58;;;27.60;64.90;;;;;;4874295;29;20053;-61
2021/07/01 08:00:40;;;;;;;1.50;1.40;;;27.50;64.80;;;;;;4874558;29;20061;-63
2021/07/01 08:03:07;;;;;;;4.65;1.65;;;27.60;65.00;;;;;;4875218;29;20140;-63
2021/07/01 08:05:34;;;;;;;8.20;1.58;;;27.50;64.80;;;;;;4875262;29;20148;-62
2021/07/01 08:08:01;;;;;;;2.55;1.15;;;27.60;64.80;;;;;;4875740;29;20053;-62
2021/07/01 08:10:32;;;;;;;3.65;1.58;;;27.60;64.80;;;;;;4879296;29;20140;-60
2021/07/01 08:13:07;;;;;;;2.85;1.55;;;27.60;64.80;;;;;;4875221;29;20060;-60
2021/07/01 08:15:40;;;;;;;6.13;2.40;;;27.60;64.80;;;;;;4874595;29;20538;-60
2021/07/01 08:18:07;;;;;;;4.70;1.50;;;27.60;65.00;;;;;;4874300;29;20200;-62
2021/07/01 08:20:34;;;;;;;4.97;1.58;;;27.60;65.10;;;;;;4875174;29;20080;-62
2021/07/01 08:23:00;;;;;;;1.65;1.55;;;27.60;65.20;;;;;;4875129;29;20148;-61
2021/07/01 08:25:30;;;;;;;3.58;1.50;;;27.60;65.50;;;;;;4874544;29;20561;-58
2021/07/01 08:27:56;;;;;;;3.20;1.92;;;27.60;65.90;;;;;;4874999;29;20156;-61
2021/07/01 08:30:25;;;;;;;2.03;1.77;;;27.60;65.80;;;;;;4874572;29;20188;-61
2021/07/01 08:32:59;;;;;;;2.05;1.65;;;27.60;65.90;;;;;;4874497;29;20485;-62
2021/07/01 08:35:26;;;;;;;2.15;1.98;;;27.60;65.80;;;;;;4873181;29;20144;-61
2021/07/01 08:37:58;;;;;;;2.40;2.30;;;27.70;65.90;;;;;;4874624;29;20064;-62
2021/07/01 08:40:34;;;;;;;4.28;2.72;;;27.60;65.90;;;;;;4874646;29;20180;-61
2021/07/01 08:43:04;;;;;;;2.15;2.05;;;27.70;66.10;;;;;;4874713;29;20136;-62
2021/07/01 08:46:11;;;;;;;3.33;2.90;;;27.60;66.10;;;;;;4874436;29;20140;-59
2021/07/01 08:48:59;;;;;;;5.70;2.80;;;27.60;66.40;;;;;;4874065;29;20526;-59
2021/07/01 08:51:30;;;;;;;2.47;2.30;;;27.60;66.60;;;;;;4874548;29;20494;-59
2021/07/01 08:54:34;;;;;;;3.78;2.72;;;27.60;66.90;;;;;;4874574;29;20143;-59
2021/07/01 08:57:02;;;;;;;5.82;2.97;;;27.60;67.10;;;;;;4873746;29;20057;-58
2021/07/01 08:59:54;;;;;;;6.13;2.83;;;27.60;67.30;;;;;;4874289;29;20163;-59
2021/07/01 09:02:51;;;;;;;2.72;2.55;;;27.60;67.60;;;;;;4873997;29;20061;-57
2021/07/01 09:05:18;;;;;;;3.00;2.88;;;27.60;67.60;;;;;;4880176;29;20152;-57
2021/07/01 09:07:52;;;;;;;8.63;3.65;;;27.60;67.80;;;;;;4874334;29;20116;-59
2021/07/01 09:10:20;;;;;;;4.95;3.10;;;27.60;68.10;;;;;;4878421;29;20584;-58
2021/07/01 09:12:55;;;;;;;3.65;3.38;;;27.60;68.10;;;;;;4874658;29;20071;-58
2021/07/01 09:15:23;;;;;;;6.00;2.78;;;27.60;68.30;;;;;;4874052;29;20147;-59
2021/07/01 09:17:51;;;;;;;5.10;2.88;;;27.60;68.40;;;;;;4873767;29;20060;-58
2021/07/01 09:20:32;;;;;;;2.63;2.42;;;27.60;68.60;;;;;;4874285;29;20619;-59
2021/07/01 09:22:58;;;;;;;3.05;2.85;;;27.50;68.80;;;;;;4874351;29;20144;-59
2021/07/01 09:25:25;;;;;;;3.58;2.80;;;27.50;69.00;;;;;;4874219;29;20845;-59
2021/07/01 09:27:52;;;;;;;4.50;2.95;;;27.50;69.10;;;;;;4874136;29;20084;-58
2021/07/01 09:30:27;;;;;;;5.25;3.05;;;27.50;69.20;;;;;;4874238;29;20164;-58
2021/07/01 09:33:01;;;;;;;3.78;2.92;;;27.50;69.30;;;;;;4873981;29;20433;-58
2021/07/01 09:35:30;;;;;;;3.15;2.83;;;27.50;69.50;;;;;;4874205;29;20152;-58
2021/07/01 09:38:02;;;;;;;4.25;3.15;;;27.50;69.70;;;;;;4876727;29;20057;-58
2021/07/01 09:40:29;;;;;;;2.88;2.67;;;27.50;69.90;;;;;;4877751;29;20061;-58
2021/07/01 09:42:59;;;;;;;3.40;3.15;;;27.50;70.00;;;;;;4877494;29;20184;-58
2021/07/01 09:45:27;;;;;;;4.55;3.05;;;27.50;70.20;;;;;;4877527;29;20065;-59
2021/07/01 09:48:12;;;;;;;6.25;3.17;;;27.50;70.30;;;;;;4877749;29;20097;-59
2021/07/01 09:50:50;;;;;;;5.53;3.03;;;27.50;70.50;;;;;;4869839;29;20068;-59
2021/07/01 09:53:29;;;;;;;3.72;3.35;;;27.50;70.60;;;;;;4877545;29;20132;-61
2021/07/01 09:55:58;;;;;;;5.35;3.58;;;27.50;70.60;;;;;;4877400;29;20152;-61
2021/07/01 09:58:30;;;;;;;3.85;3.15;;;27.50;70.70;;;;;;4876294;29;20072;-61
2021/07/01 10:00:56;;;;;;;4.03;3.42;;;27.50;71.20;;;;;;4877087;29;20140;-62
2021/07/01 10:03:22;;;;;;;3.60;3.03;;;27.60;71.80;;;;;;4875089;29;20143;-60
2021/07/01 10:05:48;;;;;;;6.38;3.83;;;27.60;71.90;;;;;;4877161;29;20088;-62
2021/07/01 10:08:14;;;;;;;5.30;3.90;;;27.60;71.20;;;;;;4877591;29;20100;-57
2021/07/01 10:10:46;;;;;;;3.85;3.50;;;27.60;71.10;;;;;;4881818;29;20064;-58
2021/07/01 10:13:13;;;;;;;4.05;3.55;;;27.60;71.20;;;;;;4877544;29;20964;-58
2021/07/01 10:15:40;;;;;;;3.70;3.35;;;27.60;71.00;;;;;;4876859;29;20852;-58
2021/07/01 10:18:15;;;;;;;4.22;3.58;;;27.60;70.90;;;;;;4876616;29;20068;-61
2021/07/01 10:20:53;;;;;;;4.22;3.40;;;27.60;71.00;;;;;;4877024;29;20140;-62
2021/07/01 10:23:22;;;;;;;6.22;2.97;;;27.60;71.10;;;;;;4877008;29;20061;-59
2021/07/01 10:25:51;;;;;;;3.47;3.03;;;27.60;71.00;;;;;;4876727;29;20053;-58
2021/07/01 10:28:20;;;;;;;3.22;2.72;;;27.60;70.90;;;;;;4877014;29;20057;-58
2021/07/01 10:30:57;;;;;;;4.35;3.08;;;27.60;70.70;;;;;;4876949;29;20175;-58
2021/07/01 10:33:28;;;;;;;3.13;2.60;;;27.60;70.60;;;;;;4876898;29;20424;-59
2021/07/01 10:36:00;;;;;;;3.05;2.95;;;27.60;70.50;;;;;;4876598;29;20486;-59
2021/07/01 10:38:27;;;;;;;4.63;2.85;;;27.60;70.50;;;;;;4876517;29;20067;-59
2021/07/01 10:40:55;;;;;;;2.97;2.78;;;27.60;70.40;;;;;;4876601;29;20061;-60
2021/07/01 10:43:41;;;;;;;3.13;2.47;;;27.60;70.30;;;;;;4876689;29;20611;-58
2021/07/01 10:46:08;;;;;;;2.05;1.83;;;27.60;70.00;;;;;;4876437;29;20139;-58
2021/07/01 10:48:34;;;;;;;2.03;1.92;;;27.60;69.90;;;;;;4864207;29;20144;-58
2021/07/01 10:51:13;;;;;;;4.13;1.85;;;27.60;69.90;;;;;;4876833;29;20513;-58
2021/07/01 10:53:41;;;;;;;4.80;2.58;;;27.60;69.80;;;;;;4876530;29;20125;-58
2021/07/01 10:56:16;;;;;;;6.75;2.60;;;27.60;69.70;;;;;;4876445;29;20057;-59
2021/07/01 10:58:44;;;;;;;2.35;2.15;;;27.60;69.50;;;;;;4876394;29;20136;-59
2021/07/01 11:01:24;;;;;;;2.15;2.03;;;27.60;69.40;;;;;;4875970;29;20061;-58
2021/07/01 11:04:16;;;;;;;2.78;1.50;;;27.60;69.20;;;;;;4876151;29;20148;-58
2021/07/01 11:06:58;;;;;;;2.50;1.60;;;27.60;69.20;;;;;;4876281;29;20063;-58
2021/07/01 11:09:42;;;;;;;2.65;1.50;;;27.60;68.90;;;;;;4876176;29;20608;-58
2021/07/01 11:12:08;;;;;;;2.08;1.83;;;27.50;68.80;;;;;;4882223;29;20072;-58
2021/07/01 11:14:46;;;;;;;1.58;1.58;;;27.60;68.80;;;;;;4876232;29;20136;-59
2021/07/01 11:17:12;;;;;;;1.60;1.50;;;27.50;68.80;;;;;;4875678;29;20100;-58
2021/07/01 11:19:44;;;;;;;7.78;2.17;;;27.60;68.70;;;;;;4876019;29;20144;-58
2021/07/01 11:22:11;;;;;;;2.63;1.85;;;27.50;68.60;;;;;;4876000;29;20140;-58
2021/07/01 11:24:42;;;;;;;1.73;1.73;;;27.50;68.50;;;;;;4876276;29;20148;-59
2021/07/01 11:27:09;;;;;;;1.83;1.55;;;27.50;68.60;;;;;;4875835;29;20695;-58
2021/07/01 11:29:43;;;;;;;2.35;1.25;;;27.50;68.70;;;;;;4875774;29;20072;-58
2021/07/01 11:32:25;;;;;;;5.28;1.90;;;27.50;68.80;;;;;;4875485;29;20061;-58
2021/07/01 11:34:53;;;;;;;3.75;1.30;;;27.50;68.90;;;;;;4875858;29;20063;-59
2021/07/01 11:37:36;;;;;;;2.00;1.70;;;27.50;68.80;;;;;;4875212;29;20147;-60
2021/07/01 11:40:22;;;;;;;2.22;1.80;;;27.50;68.90;;;;;;4874642;29;20068;-58
2021/07/01 11:42:51;;;;;;;1.90;1.70;;;27.50;69.00;;;;;;4875530;29;20525;-58
2021/07/01 11:45:18;;;;;;;7.03;1.58;;;27.50;69.30;;;;;;4875710;29;20828;-58
2021/07/01 11:47:46;;;;;;;1.67;1.67;;;27.50;69.70;;;;;;4875315;29;20187;-58
2021/07/01 11:50:12;;;;;;;2.33;1.92;;;27.60;70.00;;;;;;4875187;29;20088;-59
2021/07/01 11:52:41;;;;;;;4.50;2.35;;;27.60;70.00;;;;;;4874266;29;20060;-58
2021/07/01 11:55:07;;;;;;;3.05;1.80;;;27.60;70.30;;;;;;4875343;29;20067;-58
2021/07/01 11:57:33;;;;;;;2.75;1.90;;;27.60;70.50;;;;;;4874925;29;20562;-57
2021/07/01 11:59:59;;;;;;;2.05;1.95;;;27.60;70.80;;;;;;4874937;29;20160;-57
2021/07/01 12:02:25;;;;;;;2.67;2.17;;;27.60;70.70;;;;;;4875021;29;20057;-58
2021/07/01 12:04:52;;;;;;;2.45;2.25;;;27.60;70.50;;;;;;4875122;29;20061;-58
2021/07/01 12:07:28;;;;;;;3.65;2.38;;;27.60;70.50;;;;;;4875327;29;20084;-58
2021/07/01 12:09:56;;;;;;;2.15;1.88;;;27.70;71.00;;;;;;4871543;29;20471;-60
2021/07/01 12:12:25;;;;;;;2.15;2.05;;;27.70;71.00;;;;;;4878288;29;20125;-58
2021/07/01 12:15:09;;;;;;;3.00;2.50;;;27.60;71.10;;;;;;4875117;29;20053;-58
2021/07/01 12:17:58;;;;;;;16.67;3.00;;;27.70;71.00;;;;;;4872237;29;20147;-61
2021/07/01 12:20:31;;;;;;;3.63;3.42;;;27.70;71.20;;;;;;4870811;29;20380;-60
2021/07/01 12:23:02;;;;;;;4.68;4.38;;;27.70;71.30;;;;;;4875064;29;20069;-59
2021/07/01 12:25:28;;;;;;;5.53;5.05;;;27.70;71.10;;;;;;4874756;29;20113;-60
2021/07/01 12:28:10;;;;;;;4.53;4.22;;;27.70;71.10;;;;;;4874702;29;20627;-59
2021/07/01 12:31:02;;;;;;;6.03;5.53;;;27.70;71.20;;;;;;4874681;29;20610;-60
2021/07/01 12:33:38;;;;;;;6.95;4.60;;;27.70;71.00;;;;;;4874848;29;20065;-62
2021/07/01 12:36:13;;;;;;;4.18;3.83;;;27.70;70.90;;;;;;4874822;29;20540;-60
2021/07/01 12:38:41;;;;;;;4.15;3.85;;;27.70;70.80;;;;;;4874721;29;20061;-59
2021/07/01 12:41:11;;;;;;;6.85;3.53;;;27.70;71.30;;;;;;4874764;29;20139;-60
2021/07/01 12:43:52;;;;;;;4.72;4.00;;;27.70;70.60;;;;;;4874696;29;20057;-60
2021/07/01 12:46:41;;;;;;;4.22;3.92;;;27.70;70.50;;;;;;4874239;29;20532;-60
2021/07/01 12:49:31;;;;;;;5.32;4.80;;;27.70;70.40;;;;;;4873525;29;20509;-61
2021/07/01 12:52:02;;;;;;;4.50;4.20;;;27.70;70.30;;;;;;4874283;29;20144;-61
2021/07/01 12:54:31;;;;;;;7.03;4.97;;;27.70;70.00;;;;;;4874693;29;20099;-59
2021/07/01 12:56:57;;;;;;;6.53;4.40;;;27.70;69.70;;;;;;4874477;29;20812;-59
2021/07/01 12:59:44;;;;;;;4.38;4.05;;;27.70;69.50;;;;;;4874233;29;20092;-58
2021/07/01 13:02:10;;;;;;;4.25;3.95;;;27.70;69.20;;;;;;4873737;29;20111;-60
2021/07/01 13:04:38;;;;;;;4.15;3.88;;;27.70;69.10;;;;;;4870518;29;20056;-59
2021/07/01 13:07:07;;;;;;;3.35;3.05;;;27.70;69.00;;;;;;4868043;29;20578;-59
2021/07/01 13:09:38;;;;;;;4.40;2.67;;;27.70;68.70;;;;;;4874671;29;20139;-59
2021/07/01 13:12:11;;;;;;;2.90;1.80;;;27.70;68.10;;;;;;4878311;29;20143;-59
2021/07/01 13:14:39;;;;;;;1.63;1.35;;;27.70;66.70;;;;;;4874510;29;20057;-59
2021/07/01 13:17:11;;;;;;;1.67;1.45;;;27.60;66.00;;;;;;4873662;29;20071;-60
2021/07/01 13:19:39;;;;;;;1.95;0.80;;;27.70;65.70;;;;;;4874462;29;20060;-60